createdAt,value
2022-10-13T00:00:42.278Z,37.87
2022-10-13T00:03:09.013Z,40.33
2022-10-13T00:05:35.576Z,38.13
2022-10-13T00:08:02.037Z,29.13
2022-10-13T00:10:28.602Z,44.03
2022-10-13T00:12:55.144Z,32.73
2022-10-13T00:15:21.708Z,31.33
2022-10-13T00:17:48.261Z,33.33
2022-10-13T00:20:14.762Z,31.50
2022-10-13T00:22:41.193Z,36.80
2022-10-13T00:25:07.890Z,39.60
2022-10-13T00:27:34.489Z,42.70
2022-10-13T00:30:00.935Z,37.57
2022-10-13T00:32:27.438Z,35.37
2022-10-13T00:34:54.034Z,36.37
2022-10-13T00:37:20.431Z,41.97
2022-10-13T00:39:47.402Z,35.23
2022-10-13T00:42:14.200Z,39.03
2022-10-13T00:45:00.600Z,35.47
2022-10-13T00:47:29.070Z,40.93
2022-10-13T00:49:56.015Z,36.27
2022-10-13T00:52:23.655Z,33.90
2022-10-13T00:54:50.745Z,33.37
2022-10-13T00:57:18.351Z,36.93
2022-10-13T00:59:44.849Z,35.57
2022-10-13T01:02:11.331Z,35.47
2022-10-13T01:04:40.269Z,33.43
2022-10-13T01:07:06.703Z,32.20
2022-10-13T01:09:37.747Z,38.70
2022-10-13T01:12:25.908Z,44.27
2022-10-13T01:15:02.698Z,33.97
2022-10-13T01:17:48.905Z,37.00
2022-10-13T01:20:32.787Z,36.37
2022-10-13T01:23:53.153Z,32.23
2022-10-13T01:26:41.365Z,34.27
2022-10-13T01:29:41.235Z,36.57
2022-10-13T01:32:13.917Z,40.17
2022-10-13T01:34:48.120Z,36.07
2022-10-13T01:37:22.292Z,37.63
2022-10-13T01:40:14.343Z,32.97
2022-10-13T01:42:50.113Z,38.83
2022-10-13T01:45:19.681Z,34.40
2022-10-13T01:47:47.029Z,30.40
2022-10-13T01:50:14.989Z,42.27
2022-10-13T01:52:42.704Z,30.27
2022-10-13T01:55:12.018Z,32.63
2022-10-13T01:57:44.535Z,29.67
2022-10-13T02:00:19.524Z,35.57
2022-10-13T02:03:20.813Z,45.10
2022-10-13T02:05:53.758Z,43.27
2022-10-13T02:11:32.650Z,35.53
2022-10-13T02:17:10.360Z,45.37
2022-10-13T02:19:38.241Z,42.47
2022-10-13T02:22:06.287Z,42.87
2022-10-13T02:24:33.092Z,32.20
2022-10-13T02:26:59.556Z,34.93
2022-10-13T02:29:26.147Z,34.90
2022-10-13T02:31:54.808Z,41.53
2022-10-13T02:34:21.336Z,42.47
2022-10-13T02:36:47.923Z,37.17
2022-10-13T02:39:14.523Z,36.87
2022-10-13T02:41:40.999Z,37.20
2022-10-13T02:44:07.505Z,31.13
2022-10-13T02:46:34.347Z,30.17
2022-10-13T02:49:00.937Z,32.57
2022-10-13T02:51:27.438Z,42.10
2022-10-13T02:53:54.014Z,34.17
2022-10-13T02:56:20.554Z,31.23
2022-10-13T02:58:46.988Z,34.00
2022-10-13T03:01:14.959Z,48.50
2022-10-13T03:03:41.552Z,40.00
2022-10-13T03:06:08.168Z,40.10
2022-10-13T03:08:35.321Z,36.93
2022-10-13T03:11:02.033Z,35.87
2022-10-13T03:13:28.505Z,34.53
2022-10-13T03:15:54.997Z,32.27
2022-10-13T03:18:21.496Z,42.43
2022-10-13T03:21:02.153Z,41.40
2022-10-13T03:23:28.921Z,45.00
2022-10-13T03:25:55.970Z,40.60
2022-10-13T03:28:22.787Z,40.40
2022-10-13T03:30:49.258Z,40.33
2022-10-13T03:33:15.940Z,41.63
2022-10-13T03:35:42.445Z,44.30
2022-10-13T03:38:08.874Z,44.13
2022-10-13T03:40:36.407Z,45.80
2022-10-13T03:43:02.853Z,41.43
2022-10-13T03:45:31.905Z,42.43
2022-10-13T03:47:58.757Z,37.30
2022-10-13T03:50:25.251Z,43.77
2022-10-13T03:52:51.739Z,44.00
2022-10-13T03:55:18.229Z,44.87
2022-10-13T03:57:44.789Z,51.17
2022-10-13T04:00:12.066Z,48.73
2022-10-13T04:02:38.507Z,34.57
2022-10-13T04:05:05.302Z,35.33
2022-10-13T04:07:32.278Z,40.83
2022-10-13T04:09:58.681Z,45.67
2022-10-13T04:12:25.536Z,43.33
2022-10-13T04:14:52.147Z,37.13
2022-10-13T04:17:18.670Z,42.00
2022-10-13T04:19:45.193Z,37.23
2022-10-13T04:22:11.669Z,41.70
2022-10-13T04:24:38.132Z,42.90
2022-10-13T04:27:04.600Z,46.63
2022-10-13T04:29:32.079Z,47.83
2022-10-13T04:32:01.362Z,47.63
2022-10-13T04:34:27.930Z,42.17
2022-10-13T04:36:54.347Z,81.43
2022-10-13T04:39:20.836Z,58.53
2022-10-13T04:41:47.386Z,50.67
2022-10-13T04:44:13.797Z,42.93
2022-10-13T04:46:40.253Z,36.23
2022-10-13T04:49:06.836Z,47.03
2022-10-13T04:51:33.340Z,42.90
2022-10-13T04:54:05.516Z,45.67
2022-10-13T04:56:32.503Z,42.70
2022-10-13T04:58:59.892Z,45.73
2022-10-13T05:01:26.922Z,45.67
2022-10-13T05:03:54.920Z,45.83
2022-10-13T05:06:27.058Z,42.23
2022-10-13T05:08:53.879Z,50.37
2022-10-13T05:11:20.778Z,46.40
2022-10-13T05:13:48.490Z,50.23
2022-10-13T05:16:17.184Z,50.53
2022-10-13T05:18:43.781Z,56.57
2022-10-13T05:21:12.617Z,56.33
2022-10-13T05:23:40.245Z,54.07
2022-10-13T05:26:11.466Z,57.37
2022-10-13T05:28:38.443Z,59.47
2022-10-13T05:31:11.679Z,53.40
2022-10-13T05:33:38.468Z,55.83
2022-10-13T05:36:11.493Z,50.37
2022-10-13T05:38:38.781Z,46.03
2022-10-13T05:41:13.194Z,45.03
2022-10-13T05:43:40.577Z,46.23
2022-10-13T05:46:08.115Z,45.97
2022-10-13T05:48:35.276Z,45.63
2022-10-13T05:51:04.738Z,48.33
2022-10-13T05:53:34.343Z,55.37
2022-10-13T05:56:06.271Z,43.03
2022-10-13T05:58:38.791Z,53.00
2022-10-13T06:01:10.818Z,47.23
2022-10-13T06:03:38.190Z,38.37
2022-10-13T06:06:04.921Z,43.70
2022-10-13T06:08:32.083Z,44.97
2022-10-13T06:10:58.583Z,43.57
2022-10-13T06:13:25.034Z,44.37
2022-10-13T06:15:51.798Z,45.80
2022-10-13T06:18:18.267Z,39.43
2022-10-13T06:20:44.793Z,47.60
2022-10-13T06:23:11.461Z,47.47
2022-10-13T06:25:38.202Z,38.87
2022-10-13T06:28:04.773Z,48.37
2022-10-13T06:30:32.292Z,33.33
2022-10-13T06:32:58.820Z,40.33
2022-10-13T06:35:25.472Z,42.90
2022-10-13T06:37:53.367Z,41.07
2022-10-13T06:40:19.918Z,37.63
2022-10-13T06:42:50.172Z,31.00
2022-10-13T06:45:17.639Z,37.37
2022-10-13T06:47:44.111Z,39.03
2022-10-13T06:50:10.919Z,54.90
2022-10-13T06:52:37.776Z,39.33
2022-10-13T06:55:05.296Z,31.10
2022-10-13T06:57:32.628Z,32.43
2022-10-13T06:59:59.529Z,36.90
2022-10-13T07:02:26.084Z,30.87
2022-10-13T07:04:52.587Z,35.90
2022-10-13T07:07:19.590Z,28.60
2022-10-13T07:09:46.246Z,26.90
2022-10-13T07:12:14.158Z,29.07
2022-10-13T07:14:43.714Z,29.77
2022-10-13T07:17:10.841Z,37.57
2022-10-13T07:19:37.350Z,32.50
2022-10-13T07:22:04.160Z,31.87
2022-10-13T07:24:33.004Z,29.57
2022-10-13T07:27:03.909Z,31.27
2022-10-13T07:29:36.731Z,31.97
2022-10-13T07:32:03.549Z,29.83
2022-10-13T07:34:30.000Z,22.33
2022-10-13T07:36:57.128Z,28.10
2022-10-13T07:39:23.853Z,33.97
2022-10-13T07:41:51.498Z,24.83
2022-10-13T07:44:18.861Z,37.10
2022-10-13T07:46:53.434Z,30.03
2022-10-13T07:49:20.716Z,22.43
2022-10-13T07:51:50.559Z,22.30
2022-10-13T07:54:21.578Z,26.77
2022-10-13T07:56:57.091Z,30.73
2022-10-13T07:59:26.502Z,26.90
2022-10-13T08:01:53.503Z,27.90
2022-10-13T08:04:20.291Z,22.08
2022-10-13T08:06:50.224Z,32.50
2022-10-13T08:09:16.798Z,29.57
2022-10-13T08:11:43.345Z,24.50
2022-10-13T08:14:11.900Z,24.87
2022-10-13T08:16:40.086Z,20.48
2022-10-13T08:19:06.738Z,25.27
2022-10-13T08:21:57.598Z,22.40
2022-10-13T08:24:22.248Z,20.53
2022-10-13T08:26:53.396Z,28.33
2022-10-13T08:29:22.593Z,22.37
2022-10-13T08:31:51.681Z,24.03
2022-10-13T08:34:18.750Z,22.10
2022-10-13T08:36:47.782Z,19.77
2022-10-13T08:39:14.652Z,20.33
2022-10-13T08:41:46.594Z,16.50
2022-10-13T08:44:59.174Z,27.40
2022-10-13T08:47:27.200Z,23.13
2022-10-13T08:50:00.297Z,25.03
2022-10-13T08:52:29.693Z,22.03
2022-10-13T08:54:57.275Z,26.03
2022-10-13T08:57:24.053Z,21.33
2022-10-13T08:59:52.795Z,21.70
2022-10-13T09:02:27.233Z,22.17
2022-10-13T09:04:54.097Z,18.50
2022-10-13T09:07:24.900Z,21.53
2022-10-13T09:09:52.893Z,18.67
2022-10-13T09:12:24.477Z,19.20
2022-10-13T09:15:11.954Z,22.33
2022-10-13T09:17:41.055Z,19.03
2022-10-13T09:20:23.133Z,15.53
2022-10-13T09:23:01.447Z,25.33
2022-10-13T09:25:28.156Z,19.03
2022-10-13T09:27:58.060Z,20.20
2022-10-13T09:30:25.618Z,18.73
2022-10-13T09:33:06.418Z,17.30
2022-10-13T09:35:35.013Z,18.17
2022-10-13T09:38:05.609Z,20.33
2022-10-13T09:40:32.871Z,17.47
2022-10-13T09:43:01.414Z,14.57
2022-10-13T09:45:30.670Z,18.57
2022-10-13T09:48:04.585Z,20.50
2022-10-13T09:50:35.494Z,20.13
2022-10-13T09:53:25.714Z,20.27
2022-10-13T09:56:29.745Z,21.50
2022-10-13T09:59:18.194Z,19.43
2022-10-13T10:01:46.567Z,18.87
2022-10-13T10:04:18.070Z,14.00
2022-10-13T10:06:48.855Z,19.90
2022-10-13T10:09:37.242Z,19.47
2022-10-13T10:12:04.950Z,11.73
2022-10-13T10:14:37.053Z,15.30
2022-10-13T10:17:41.607Z,14.17
2022-10-13T10:20:26.548Z,17.67
2022-10-13T10:23:01.317Z,15.10
2022-10-13T10:25:52.496Z,17.30
2022-10-13T10:28:27.681Z,11.93
2022-10-13T10:31:02.965Z,17.20
2022-10-13T10:33:56.422Z,14.10
2022-10-13T10:36:28.639Z,9.17
2022-10-13T10:39:03.833Z,19.93
2022-10-13T10:41:45.583Z,14.07
2022-10-13T10:44:22.517Z,10.53
2022-10-13T10:46:49.966Z,13.13
2022-10-13T10:49:26.900Z,15.10
2022-10-13T10:51:54.073Z,9.63
2022-10-13T10:54:20.524Z,13.20
2022-10-13T10:57:00.549Z,11.03
2022-10-13T10:59:49.901Z,9.20
2022-10-13T11:02:35.505Z,11.13
2022-10-13T11:05:05.423Z,8.80
2022-10-13T11:07:33.413Z,7.53
2022-10-13T11:09:59.828Z,11.07
2022-10-13T11:12:45.033Z,7.90
2022-10-13T11:15:13.478Z,8.67
2022-10-13T11:17:41.252Z,8.83
2022-10-13T11:20:22.381Z,7.43
2022-10-13T11:22:57.723Z,13.30
2022-10-13T11:25:42.446Z,12.53
2022-10-13T11:28:21.287Z,12.77
2022-10-13T11:30:55.585Z,11.30
2022-10-13T11:33:34.862Z,9.63
2022-10-13T11:36:28.956Z,13.83
2022-10-13T11:39:20.543Z,13.43
2022-10-13T11:42:05.973Z,9.50
2022-10-13T11:44:45.782Z,12.97
2022-10-13T11:47:27.714Z,12.90
2022-10-13T11:50:08.204Z,10.33
2022-10-13T11:52:37.961Z,13.27
2022-10-13T11:58:16.481Z,12.87
2022-10-13T12:00:56.062Z,16.33
2022-10-13T12:03:40.521Z,9.70
2022-10-13T12:06:23.008Z,11.73
2022-10-13T12:08:51.953Z,14.33
2022-10-13T12:11:38.381Z,16.30
2022-10-13T12:14:07.768Z,9.77
2022-10-13T12:16:34.764Z,11.60
2022-10-13T12:19:10.146Z,10.57
2022-10-13T12:21:49.474Z,14.13
2022-10-13T12:24:16.524Z,8.60
2022-10-13T12:26:43.564Z,15.77
2022-10-13T12:29:14.729Z,10.87
2022-10-13T12:31:44.931Z,13.53
2022-10-13T12:34:21.855Z,11.03
2022-10-13T12:37:28.035Z,13.07
2022-10-13T12:39:56.941Z,10.10
2022-10-13T12:42:29.848Z,16.80
2022-10-13T12:44:57.831Z,16.13
2022-10-13T12:47:50.240Z,11.07
2022-10-13T12:50:26.132Z,10.20
2022-10-13T12:53:03.878Z,13.03
2022-10-13T12:55:33.162Z,11.10
2022-10-13T12:58:01.586Z,10.83
2022-10-13T13:00:29.998Z,9.60
2022-10-13T13:03:05.645Z,10.67
2022-10-13T13:05:50.758Z,10.73
2022-10-13T13:08:29.869Z,9.93
2022-10-13T13:11:01.510Z,15.07
2022-10-13T13:13:28.924Z,12.90
2022-10-13T13:16:13.991Z,13.53
2022-10-13T13:18:42.723Z,12.43
2022-10-13T13:21:12.021Z,16.70
2022-10-13T13:23:39.355Z,12.20
2022-10-13T13:26:14.255Z,16.00
2022-10-13T13:28:48.084Z,11.00
2022-10-13T13:31:19.643Z,11.63
2022-10-13T13:33:46.765Z,11.23
2022-10-13T13:36:24.222Z,13.20
2022-10-13T13:38:51.670Z,15.33
2022-10-13T13:41:18.531Z,16.27
2022-10-13T13:43:47.849Z,12.67
2022-10-13T13:46:21.139Z,12.63
2022-10-13T13:48:48.129Z,12.60
2022-10-13T13:51:15.565Z,17.63
2022-10-13T13:53:42.165Z,10.30
2022-10-13T13:56:17.324Z,15.07
2022-10-13T13:58:44.628Z,11.93
2022-10-13T14:01:11.726Z,10.33
2022-10-13T14:03:38.426Z,19.70
2022-10-13T14:06:05.519Z,13.40
2022-10-13T14:08:33.579Z,15.00
2022-10-13T14:11:00.252Z,14.73
2022-10-13T14:13:26.933Z,12.17
2022-10-13T14:15:57.771Z,14.60
2022-10-13T14:18:24.837Z,16.10
2022-10-13T14:20:51.430Z,16.90
2022-10-13T14:23:18.187Z,13.33
2022-10-13T14:25:44.880Z,13.30
2022-10-13T14:28:14.571Z,14.37
2022-10-13T14:30:44.429Z,15.60
2022-10-13T14:33:11.020Z,18.90
2022-10-13T14:35:37.503Z,14.23
2022-10-13T14:38:04.165Z,11.03
2022-10-13T14:40:31.158Z,11.83
2022-10-13T14:42:57.696Z,16.17
2022-10-13T14:45:24.263Z,13.27
2022-10-13T14:47:52.609Z,15.17
2022-10-13T14:50:19.113Z,17.10
2022-10-13T14:52:45.610Z,13.97
2022-10-13T14:55:12.451Z,15.10
2022-10-13T14:57:39.011Z,13.20
2022-10-13T15:00:05.855Z,12.70
2022-10-13T15:02:32.484Z,15.20
2022-10-13T15:04:58.963Z,11.20
2022-10-13T15:07:25.663Z,14.73
2022-10-13T15:10:04.318Z,13.90
2022-10-13T15:12:32.251Z,14.43
2022-10-13T15:14:58.985Z,22.53
2022-10-13T15:17:25.416Z,17.10
2022-10-13T15:19:52.131Z,18.00
2022-10-13T15:22:19.382Z,14.10
2022-10-13T15:24:46.533Z,14.67
2022-10-13T15:27:13.041Z,15.90
2022-10-13T15:29:39.577Z,16.43
2022-10-13T15:32:13.613Z,17.30
2022-10-13T15:34:40.140Z,12.17
2022-10-13T15:37:07.367Z,17.97
2022-10-13T15:39:34.155Z,18.00
2022-10-13T15:42:00.929Z,17.83
2022-10-13T15:44:28.062Z,13.73
2022-10-13T15:47:07.360Z,13.60
2022-10-13T15:49:39.393Z,10.80
2022-10-13T15:52:06.054Z,12.13
2022-10-13T15:54:33.545Z,11.80
2022-10-13T15:57:00.299Z,13.03
2022-10-13T15:59:26.832Z,16.80
2022-10-13T16:01:53.611Z,11.57
2022-10-13T16:04:20.331Z,20.17
2022-10-13T16:06:46.813Z,27.07
2022-10-13T16:09:13.497Z,20.40
2022-10-13T16:11:40.224Z,18.10
2022-10-13T16:14:06.704Z,19.20
2022-10-13T16:16:35.256Z,18.00
2022-10-13T16:19:02.098Z,16.90
2022-10-13T16:21:28.667Z,10.60
2022-10-13T16:23:55.509Z,18.50
2022-10-13T16:26:22.590Z,19.33
2022-10-13T16:28:49.310Z,14.77
2022-10-13T16:31:16.791Z,11.43
2022-10-13T16:33:45.065Z,10.03
2022-10-13T16:36:17.196Z,19.00
2022-10-13T16:38:45.038Z,23.73
2022-10-13T16:41:14.740Z,12.83
2022-10-13T16:43:42.197Z,20.50
2022-10-13T16:46:12.799Z,13.83
2022-10-13T16:48:43.219Z,19.03
2022-10-13T16:51:13.417Z,17.83
2022-10-13T16:53:40.465Z,20.33
2022-10-13T16:56:07.828Z,17.97
2022-10-13T16:58:34.736Z,20.10
2022-10-13T17:01:10.983Z,16.43
2022-10-13T17:03:38.873Z,21.80
2022-10-13T17:06:06.169Z,18.70
2022-10-13T17:08:33.085Z,16.57
2022-10-13T17:11:00.068Z,14.83
2022-10-13T17:13:26.937Z,14.73
2022-10-13T17:15:55.460Z,14.87
2022-10-13T17:18:22.286Z,17.57
2022-10-13T17:21:02.361Z,17.37
2022-10-13T17:23:29.323Z,23.00
2022-10-13T17:25:56.365Z,20.37
2022-10-13T17:28:23.243Z,20.07
2022-10-13T17:31:04.233Z,16.27
2022-10-13T17:33:34.804Z,18.83
2022-10-13T17:36:04.354Z,18.50
2022-10-13T17:38:34.062Z,16.30
2022-10-13T17:41:01.794Z,18.33
2022-10-13T17:43:29.123Z,20.67
2022-10-13T17:46:07.476Z,19.63
2022-10-13T17:48:42.850Z,17.83
2022-10-13T17:51:12.064Z,19.00
2022-10-13T17:53:39.709Z,16.00
2022-10-13T17:56:09.460Z,19.87
2022-10-13T17:58:37.513Z,19.17
2022-10-13T18:01:14.166Z,22.83
2022-10-13T18:03:54.850Z,23.43
2022-10-13T18:06:22.744Z,16.60
2022-10-13T18:08:52.673Z,19.17
2022-10-13T18:11:21.573Z,26.87
2022-10-13T18:13:49.015Z,21.40
2022-10-13T18:16:18.477Z,23.53
2022-10-13T18:18:45.900Z,20.87
2022-10-13T18:21:15.618Z,17.93
2022-10-13T18:23:43.574Z,22.10
2022-10-13T18:26:15.810Z,19.77
2022-10-13T18:28:44.305Z,26.53
2022-10-13T18:31:22.139Z,20.50
2022-10-13T18:33:48.799Z,21.40
2022-10-13T18:36:20.634Z,23.43
2022-10-13T18:38:47.797Z,24.23
2022-10-13T18:41:15.318Z,20.43
2022-10-13T18:43:41.856Z,25.30
2022-10-13T18:46:09.764Z,23.67
2022-10-13T18:48:36.693Z,19.13
2022-10-13T18:51:08.367Z,17.57
2022-10-13T18:53:36.053Z,29.17
2022-10-13T18:56:07.871Z,25.27
2022-10-13T18:58:35.434Z,21.00
2022-10-13T19:01:03.374Z,26.23
2022-10-13T19:03:35.760Z,20.80
2022-10-13T19:06:04.332Z,27.07
2022-10-13T19:08:32.526Z,20.70
2022-10-13T19:10:59.754Z,22.17
2022-10-13T19:13:27.820Z,26.17
2022-10-13T19:16:01.341Z,22.73
2022-10-13T19:18:28.115Z,20.43
2022-10-13T19:20:54.660Z,20.67
2022-10-13T19:23:22.200Z,19.53
2022-10-13T19:25:48.889Z,23.37
2022-10-13T19:28:15.417Z,28.80
2022-10-13T19:30:42.361Z,23.93
2022-10-13T19:33:10.467Z,23.97
2022-10-13T19:35:48.296Z,19.27
2022-10-13T19:38:15.709Z,24.40
2022-10-13T19:40:49.715Z,20.87
2022-10-13T19:43:19.322Z,28.67
2022-10-13T19:45:47.265Z,23.97
2022-10-13T19:48:13.979Z,25.70
2022-10-13T19:50:41.705Z,27.97
2022-10-13T19:53:09.621Z,22.73
2022-10-13T19:55:44.621Z,26.37
2022-10-13T19:58:11.129Z,21.70
2022-10-13T20:00:37.681Z,23.27
2022-10-13T20:03:05.120Z,19.97
2022-10-13T20:05:32.343Z,26.53
2022-10-13T20:07:58.783Z,22.77
2022-10-13T20:10:25.577Z,31.50
2022-10-13T20:12:52.249Z,28.40
2022-10-13T20:15:18.672Z,30.37
2022-10-13T20:17:45.099Z,24.77
2022-10-13T20:20:11.689Z,29.23
2022-10-13T20:22:39.794Z,26.23
2022-10-13T20:25:09.121Z,27.20
2022-10-13T20:27:36.086Z,24.17
2022-10-13T20:30:02.533Z,25.40
2022-10-13T20:32:29.042Z,25.73
2022-10-13T20:34:55.543Z,33.10
2022-10-13T20:37:22.339Z,30.60
2022-10-13T20:39:49.274Z,28.43
2022-10-13T20:42:15.753Z,31.13
2022-10-13T20:44:42.305Z,27.37
2022-10-13T20:47:08.753Z,33.40
2022-10-13T20:49:35.251Z,32.33
2022-10-13T20:52:01.656Z,35.20
2022-10-13T20:54:28.108Z,32.83
2022-10-13T20:56:54.639Z,37.13
2022-10-13T20:59:21.077Z,31.83
2022-10-13T21:01:47.499Z,31.33
2022-10-13T21:04:14.176Z,30.53
2022-10-13T21:06:41.320Z,26.90
2022-10-13T21:09:07.968Z,33.23
2022-10-13T21:11:35.257Z,32.03
2022-10-13T21:14:06.407Z,29.60
2022-10-13T21:16:33.638Z,27.10
2022-10-13T21:19:00.265Z,34.43
2022-10-13T21:21:32.432Z,39.07
2022-10-13T21:24:01.074Z,30.17
2022-10-13T21:26:29.322Z,33.30
2022-10-13T21:28:56.048Z,33.67
2022-10-13T21:31:23.898Z,28.83
2022-10-13T21:33:50.521Z,29.17
2022-10-13T21:36:18.137Z,39.70
2022-10-13T21:38:46.252Z,41.83
2022-10-13T21:41:13.946Z,39.23
2022-10-13T21:43:40.800Z,36.23
2022-10-13T21:46:14.080Z,33.87
2022-10-13T21:48:40.685Z,36.63
2022-10-13T21:51:23.556Z,33.00
2022-10-13T21:53:54.661Z,40.83
2022-10-13T21:56:21.733Z,31.10
2022-10-13T21:58:49.077Z,32.07
2022-10-13T22:01:19.397Z,35.07
2022-10-13T22:03:47.186Z,35.67
2022-10-13T22:06:19.202Z,37.27
2022-10-13T22:08:47.588Z,36.97
2022-10-13T22:11:14.915Z,34.87
2022-10-13T22:13:41.390Z,36.83
2022-10-13T22:16:19.644Z,33.47
2022-10-13T22:18:46.431Z,39.73
2022-10-13T22:21:16.722Z,32.93
2022-10-13T22:23:43.459Z,36.07
2022-10-13T22:26:10.531Z,30.73
2022-10-13T22:28:37.763Z,36.37
2022-10-13T22:31:13.373Z,37.97
2022-10-13T22:33:41.363Z,40.60
2022-10-13T22:36:15.672Z,39.53
2022-10-13T22:38:42.986Z,35.70
2022-10-13T22:41:09.932Z,43.13
2022-10-13T22:43:36.578Z,38.90
2022-10-13T22:46:03.845Z,38.93
2022-10-13T22:48:30.613Z,34.80
2022-10-13T22:50:57.407Z,35.67
2022-10-13T22:53:23.918Z,35.10
2022-10-13T22:55:50.419Z,43.63
2022-10-13T22:58:17.065Z,51.57
2022-10-13T23:00:43.525Z,34.03
2022-10-13T23:03:15.028Z,36.30
2022-10-13T23:05:43.326Z,33.73
2022-10-13T23:08:11.085Z,30.33
2022-10-13T23:10:37.618Z,36.13
2022-10-13T23:13:05.120Z,35.90
2022-10-13T23:15:32.415Z,44.37
2022-10-13T23:17:58.853Z,39.90
2022-10-13T23:20:25.507Z,34.47
2022-10-13T23:22:51.943Z,37.20
2022-10-13T23:25:18.389Z,35.40
2022-10-13T23:27:44.891Z,38.13
2022-10-13T23:30:12.074Z,40.30
2022-10-13T23:32:38.476Z,42.53
2022-10-13T23:35:05.290Z,38.47
2022-10-13T23:37:32.349Z,43.00
2022-10-13T23:39:58.835Z,33.47
2022-10-13T23:42:25.407Z,39.57
2022-10-13T23:44:51.843Z,37.00
2022-10-13T23:47:18.493Z,43.50
2022-10-13T23:49:45.200Z,35.83
2022-10-13T23:52:11.701Z,39.67
2022-10-13T23:54:38.196Z,36.17
2022-10-13T23:57:04.625Z,34.77
2022-10-13T23:59:34.208Z,39.23
